sensor_id;sensor_type;location;lat;lon;timestamp;P1;durP1;ratioP1;P2;durP2;ratioP2
6392;SDS011;3229;42.674;23.282;2024-03-22T00:02:12;11.20;;;6.07;;
6392;SDS011;3229;42.674;23.282;2024-03-22T00:04:39;7.90;;;5.63;;
6392;SDS011;3229;42.674;23.282;2024-03-22T00:07:05;9.70;;;6.33;;
6392;SDS011;3229;42.674;23.282;2024-03-22T00:09:31;9.17;;;5.63;;
6392;SDS011;3229;42.674;23.282;2024-03-22T00:11:58;7.90;;;5.90;;
6392;SDS011;3229;42.674;23.282;2024-03-22T00:14:24;7.90;;;5.67;;
6392;SDS011;3229;42.674;23.282;2024-03-22T00:16:51;8.47;;;5.63;;
6392;SDS011;3229;42.674;23.282;2024-03-22T00:19:17;8.83;;;5.53;;
6392;SDS011;3229;42.674;23.282;2024-03-22T00:21:45;8.57;;;6.00;;
6392;SDS011;3229;42.674;23.282;2024-03-22T00:24:11;9.30;;;6.17;;
6392;SDS011;3229;42.674;23.282;2024-03-22T00:26:37;8.43;;;5.40;;
6392;SDS011;3229;42.674;23.282;2024-03-22T00:29:04;9.23;;;5.87;;
6392;SDS011;3229;42.674;23.282;2024-03-22T00:31:31;12.17;;;6.03;;
6392;SDS011;3229;42.674;23.282;2024-03-22T00:33:56;9.80;;;5.93;;
6392;SDS011;3229;42.674;23.282;2024-03-22T00:36:23;7.17;;;4.90;;
6392;SDS011;3229;42.674;23.282;2024-03-22T00:38:50;8.33;;;5.80;;
6392;SDS011;3229;42.674;23.282;2024-03-22T00:41:17;8.03;;;5.37;;
6392;SDS011;3229;42.674;23.282;2024-03-22T00:43:43;9.30;;;5.40;;
6392;SDS011;3229;42.674;23.282;2024-03-22T00:46:09;7.23;;;5.47;;
6392;SDS011;3229;42.674;23.282;2024-03-22T00:48:35;10.50;;;5.87;;
6392;SDS011;3229;42.674;23.282;2024-03-22T00:51:02;9.50;;;5.83;;
6392;SDS011;3229;42.674;23.282;2024-03-22T00:53:29;6.83;;;4.90;;
6392;SDS011;3229;42.674;23.282;2024-03-22T00:55:57;8.17;;;5.93;;
6392;SDS011;3229;42.674;23.282;2024-03-22T00:58:24;8.30;;;5.87;;
6392;SDS011;3229;42.674;23.282;2024-03-22T01:00:51;9.43;;;5.73;;
6392;SDS011;3229;42.674;23.282;2024-03-22T01:03:18;6.77;;;5.33;;
6392;SDS011;3229;42.674;23.282;2024-03-22T01:05:44;10.37;;;5.90;;
6392;SDS011;3229;42.674;23.282;2024-03-22T01:08:11;7.00;;;5.17;;
6392;SDS011;3229;42.674;23.282;2024-03-22T01:10:37;9.43;;;5.53;;
6392;SDS011;3229;42.674;23.282;2024-03-22T01:13:05;8.07;;;4.93;;
6392;SDS011;3229;42.674;23.282;2024-03-22T01:15:31;7.17;;;5.20;;
6392;SDS011;3229;42.674;23.282;2024-03-22T01:17:58;7.10;;;5.27;;
6392;SDS011;3229;42.674;23.282;2024-03-22T01:20:23;9.20;;;6.63;;
6392;SDS011;3229;42.674;23.282;2024-03-22T01:22:50;9.03;;;5.40;;
6392;SDS011;3229;42.674;23.282;2024-03-22T01:25:16;8.53;;;5.83;;
6392;SDS011;3229;42.674;23.282;2024-03-22T01:27:43;9.57;;;5.27;;
6392;SDS011;3229;42.674;23.282;2024-03-22T01:30:10;8.80;;;6.03;;
6392;SDS011;3229;42.674;23.282;2024-03-22T01:32:37;8.73;;;5.50;;
6392;SDS011;3229;42.674;23.282;2024-03-22T01:35:03;10.07;;;5.93;;
6392;SDS011;3229;42.674;23.282;2024-03-22T01:37:30;8.73;;;6.33;;
6392;SDS011;3229;42.674;23.282;2024-03-22T01:39:56;8.33;;;6.17;;
6392;SDS011;3229;42.674;23.282;2024-03-22T01:42:23;7.73;;;5.30;;
6392;SDS011;3229;42.674;23.282;2024-03-22T01:44:49;9.93;;;5.97;;
6392;SDS011;3229;42.674;23.282;2024-03-22T01:47:17;12.67;;;6.30;;
6392;SDS011;3229;42.674;23.282;2024-03-22T01:49:43;11.50;;;5.77;;
6392;SDS011;3229;42.674;23.282;2024-03-22T01:52:10;8.60;;;6.20;;
6392;SDS011;3229;42.674;23.282;2024-03-22T01:54:35;9.90;;;6.20;;
6392;SDS011;3229;42.674;23.282;2024-03-22T01:57:02;10.73;;;5.67;;
6392;SDS011;3229;42.674;23.282;2024-03-22T01:59:28;9.60;;;6.00;;
6392;SDS011;3229;42.674;23.282;2024-03-22T02:01:57;8.80;;;5.70;;
6392;SDS011;3229;42.674;23.282;2024-03-22T02:04:24;7.70;;;5.30;;
6392;SDS011;3229;42.674;23.282;2024-03-22T02:06:51;13.93;;;6.83;;
6392;SDS011;3229;42.674;23.282;2024-03-22T02:09:16;7.23;;;5.70;;
6392;SDS011;3229;42.674;23.282;2024-03-22T02:11:46;10.10;;;6.57;;
6392;SDS011;3229;42.674;23.282;2024-03-22T02:14:12;10.67;;;7.07;;
6392;SDS011;3229;42.674;23.282;2024-03-22T02:16:39;9.67;;;6.73;;
6392;SDS011;3229;42.674;23.282;2024-03-22T02:19:05;10.30;;;6.70;;
6392;SDS011;3229;42.674;23.282;2024-03-22T02:21:33;10.20;;;6.57;;
6392;SDS011;3229;42.674;23.282;2024-03-22T02:24:00;8.47;;;5.80;;
6392;SDS011;3229;42.674;23.282;2024-03-22T02:26:27;9.37;;;6.47;;
6392;SDS011;3229;42.674;23.282;2024-03-22T02:28:53;9.07;;;6.13;;
6392;SDS011;3229;42.674;23.282;2024-03-22T02:31:19;8.60;;;6.50;;
6392;SDS011;3229;42.674;23.282;2024-03-22T02:33:45;9.97;;;6.90;;
6392;SDS011;3229;42.674;23.282;2024-03-22T02:36:12;11.70;;;7.50;;
6392;SDS011;3229;42.674;23.282;2024-03-22T02:38:38;8.93;;;5.90;;
6392;SDS011;3229;42.674;23.282;2024-03-22T02:41:06;10.23;;;6.50;;
6392;SDS011;3229;42.674;23.282;2024-03-22T02:43:31;12.00;;;7.60;;
6392;SDS011;3229;42.674;23.282;2024-03-22T02:45:58;9.80;;;6.30;;
6392;SDS011;3229;42.674;23.282;2024-03-22T02:48:24;8.87;;;6.53;;
6392;SDS011;3229;42.674;23.282;2024-03-22T02:50:54;9.23;;;6.43;;
6392;SDS011;3229;42.674;23.282;2024-03-22T02:53:20;7.73;;;5.97;;
6392;SDS011;3229;42.674;23.282;2024-03-22T02:55:47;9.93;;;6.73;;
6392;SDS011;3229;42.674;23.282;2024-03-22T02:58:14;8.83;;;5.93;;
6392;SDS011;3229;42.674;23.282;2024-03-22T03:00:41;12.50;;;7.00;;
6392;SDS011;3229;42.674;23.282;2024-03-22T03:03:06;11.70;;;6.43;;
6392;SDS011;3229;42.674;23.282;2024-03-22T03:05:34;9.27;;;7.10;;
6392;SDS011;3229;42.674;23.282;2024-03-22T03:08:00;9.70;;;6.50;;
6392;SDS011;3229;42.674;23.282;2024-03-22T03:10:26;9.77;;;6.60;;
6392;SDS011;3229;42.674;23.282;2024-03-22T03:12:54;10.43;;;6.23;;
6392;SDS011;3229;42.674;23.282;2024-03-22T03:15:22;8.90;;;6.63;;
6392;SDS011;3229;42.674;23.282;2024-03-22T03:17:48;10.30;;;6.27;;
6392;SDS011;3229;42.674;23.282;2024-03-22T03:20:15;9.20;;;6.17;;
6392;SDS011;3229;42.674;23.282;2024-03-22T03:22:41;10.37;;;6.50;;
6392;SDS011;3229;42.674;23.282;2024-03-22T03:25:08;10.10;;;6.27;;
6392;SDS011;3229;42.674;23.282;2024-03-22T03:27:34;9.83;;;6.87;;
6392;SDS011;3229;42.674;23.282;2024-03-22T03:30:01;11.87;;;7.23;;
6392;SDS011;3229;42.674;23.282;2024-03-22T03:32:29;12.17;;;6.80;;
6392;SDS011;3229;42.674;23.282;2024-03-22T03:34:56;8.00;;;6.50;;
6392;SDS011;3229;42.674;23.282;2024-03-22T03:37:22;11.00;;;7.43;;
6392;SDS011;3229;42.674;23.282;2024-03-22T03:39:48;13.30;;;7.40;;
6392;SDS011;3229;42.674;23.282;2024-03-22T03:42:14;11.10;;;8.27;;
6392;SDS011;3229;42.674;23.282;2024-03-22T03:44:41;11.80;;;7.70;;
6392;SDS011;3229;42.674;23.282;2024-03-22T03:47:06;11.43;;;7.60;;
6392;SDS011;3229;42.674;23.282;2024-03-22T03:49:35;12.57;;;7.63;;
6392;SDS011;3229;42.674;23.282;2024-03-22T03:52:00;21.00;;;8.77;;
6392;SDS011;3229;42.674;23.282;2024-03-22T03:54:28;11.80;;;7.93;;
6392;SDS011;3229;42.674;23.282;2024-03-22T03:56:53;12.40;;;8.47;;
6392;SDS011;3229;42.674;23.282;2024-03-22T03:59:20;11.90;;;8.70;;
6392;SDS011;3229;42.674;23.282;2024-03-22T04:01:46;12.43;;;8.27;;
6392;SDS011;3229;42.674;23.282;2024-03-22T04:04:13;17.67;;;10.13;;
6392;SDS011;3229;42.674;23.282;2024-03-22T04:06:40;15.60;;;9.47;;
6392;SDS011;3229;42.674;23.282;2024-03-22T04:09:06;15.67;;;9.67;;
6392;SDS011;3229;42.674;23.282;2024-03-22T04:11:32;18.63;;;9.30;;
6392;SDS011;3229;42.674;23.282;2024-03-22T04:13:59;10.73;;;8.33;;
6392;SDS011;3229;42.674;23.282;2024-03-22T04:16:24;20.53;;;10.20;;
6392;SDS011;3229;42.674;23.282;2024-03-22T04:18:52;15.77;;;9.50;;
6392;SDS011;3229;42.674;23.282;2024-03-22T04:21:18;17.30;;;10.57;;
6392;SDS011;3229;42.674;23.282;2024-03-22T04:23:46;17.20;;;9.83;;
6392;SDS011;3229;42.674;23.282;2024-03-22T04:26:12;16.20;;;10.30;;
6392;SDS011;3229;42.674;23.282;2024-03-22T04:28:39;18.53;;;10.03;;
6392;SDS011;3229;42.674;23.282;2024-03-22T04:31:06;15.57;;;8.73;;
6392;SDS011;3229;42.674;23.282;2024-03-22T04:33:33;15.03;;;9.17;;
6392;SDS011;3229;42.674;23.282;2024-03-22T04:36:01;24.63;;;10.10;;
6392;SDS011;3229;42.674;23.282;2024-03-22T04:38:27;15.50;;;10.60;;
6392;SDS011;3229;42.674;23.282;2024-03-22T04:40:56;18.30;;;10.10;;
6392;SDS011;3229;42.674;23.282;2024-03-22T04:43:23;15.67;;;9.67;;
6392;SDS011;3229;42.674;23.282;2024-03-22T04:45:50;17.10;;;9.43;;
6392;SDS011;3229;42.674;23.282;2024-03-22T04:48:17;16.43;;;10.13;;
6392;SDS011;3229;42.674;23.282;2024-03-22T04:50:45;14.00;;;9.80;;
6392;SDS011;3229;42.674;23.282;2024-03-22T04:53:12;16.53;;;8.87;;
6392;SDS011;3229;42.674;23.282;2024-03-22T04:55:38;16.63;;;9.23;;
6392;SDS011;3229;42.674;23.282;2024-03-22T04:58:11;17.57;;;10.10;;
6392;SDS011;3229;42.674;23.282;2024-03-22T05:00:38;14.10;;;8.90;;
6392;SDS011;3229;42.674;23.282;2024-03-22T05:03:05;15.10;;;9.40;;
6392;SDS011;3229;42.674;23.282;2024-03-22T05:05:30;13.60;;;8.50;;
6392;SDS011;3229;42.674;23.282;2024-03-22T05:07:57;14.17;;;8.63;;
6392;SDS011;3229;42.674;23.282;2024-03-22T05:10:23;11.10;;;8.20;;
6392;SDS011;3229;42.674;23.282;2024-03-22T05:12:50;13.53;;;8.40;;
6392;SDS011;3229;42.674;23.282;2024-03-22T05:15:17;12.50;;;8.43;;
6392;SDS011;3229;42.674;23.282;2024-03-22T05:17:44;14.07;;;9.03;;
6392;SDS011;3229;42.674;23.282;2024-03-22T05:20:10;12.80;;;8.00;;
6392;SDS011;3229;42.674;23.282;2024-03-22T05:22:37;16.07;;;8.37;;
6392;SDS011;3229;42.674;23.282;2024-03-22T05:25:03;14.10;;;8.60;;
6392;SDS011;3229;42.674;23.282;2024-03-22T05:27:31;13.97;;;8.33;;
6392;SDS011;3229;42.674;23.282;2024-03-22T05:29:57;13.17;;;7.97;;
6392;SDS011;3229;42.674;23.282;2024-03-22T05:32:26;11.30;;;7.73;;
6392;SDS011;3229;42.674;23.282;2024-03-22T05:34:51;13.47;;;8.33;;
6392;SDS011;3229;42.674;23.282;2024-03-22T05:37:19;15.90;;;7.93;;
6392;SDS011;3229;42.674;23.282;2024-03-22T05:39:45;9.77;;;6.87;;
6392;SDS011;3229;42.674;23.282;2024-03-22T05:42:12;13.80;;;8.27;;
6392;SDS011;3229;42.674;23.282;2024-03-22T05:44:38;14.13;;;7.63;;
6392;SDS011;3229;42.674;23.282;2024-03-22T05:47:05;15.13;;;7.77;;
6392;SDS011;3229;42.674;23.282;2024-03-22T05:49:32;11.27;;;7.30;;
6392;SDS011;3229;42.674;23.282;2024-03-22T05:51:59;23.47;;;8.40;;
6392;SDS011;3229;42.674;23.282;2024-03-22T05:54:25;13.43;;;8.40;;
6392;SDS011;3229;42.674;23.282;2024-03-22T05:56:52;12.52;;;7.60;;
6392;SDS011;3229;42.674;23.282;2024-03-22T05:59:17;13.35;;;8.52;;
6392;SDS011;3229;42.674;23.282;2024-03-22T06:01:44;13.57;;;8.05;;
6392;SDS011;3229;42.674;23.282;2024-03-22T06:04:10;15.20;;;6.70;;
6392;SDS011;3229;42.674;23.282;2024-03-22T06:06:38;28.90;;;7.32;;
6392;SDS011;3229;42.674;23.282;2024-03-22T06:09:04;14.25;;;5.78;;
6392;SDS011;3229;42.674;23.282;2024-03-22T06:11:34;14.13;;;6.90;;
6392;SDS011;3229;42.674;23.282;2024-03-22T06:14:00;10.45;;;6.95;;
6392;SDS011;3229;42.674;23.282;2024-03-22T06:16:27;13.88;;;7.32;;
6392;SDS011;3229;42.674;23.282;2024-03-22T06:18:52;20.92;;;9.25;;
6392;SDS011;3229;42.674;23.282;2024-03-22T06:21:19;11.05;;;8.80;;
6392;SDS011;3229;42.674;23.282;2024-03-22T06:23:49;16.42;;;9.05;;
6392;SDS011;3229;42.674;23.282;2024-03-22T06:26:16;16.55;;;9.93;;
6392;SDS011;3229;42.674;23.282;2024-03-22T06:28:41;21.30;;;9.15;;
6392;SDS011;3229;42.674;23.282;2024-03-22T06:31:08;15.15;;;9.05;;
6392;SDS011;3229;42.674;23.282;2024-03-22T06:33:34;15.25;;;9.23;;
6392;SDS011;3229;42.674;23.282;2024-03-22T06:36:01;15.75;;;9.50;;
6392;SDS011;3229;42.674;23.282;2024-03-22T06:38:28;16.00;;;8.40;;
6392;SDS011;3229;42.674;23.282;2024-03-22T06:40:57;15.23;;;9.20;;
6392;SDS011;3229;42.674;23.282;2024-03-22T06:43:24;11.82;;;7.90;;
6392;SDS011;3229;42.674;23.282;2024-03-22T06:45:50;14.65;;;8.73;;
6392;SDS011;3229;42.674;23.282;2024-03-22T06:48:16;15.50;;;7.55;;
6392;SDS011;3229;42.674;23.282;2024-03-22T06:50:43;9.98;;;7.68;;
6392;SDS011;3229;42.674;23.282;2024-03-22T06:53:09;12.13;;;7.68;;
6392;SDS011;3229;42.674;23.282;2024-03-22T06:55:36;14.38;;;7.88;;
6392;SDS011;3229;42.674;23.282;2024-03-22T06:58:03;11.43;;;7.10;;
6392;SDS011;3229;42.674;23.282;2024-03-22T07:00:30;11.32;;;7.10;;
6392;SDS011;3229;42.674;23.282;2024-03-22T07:02:56;9.57;;;6.90;;
6392;SDS011;3229;42.674;23.282;2024-03-22T07:05:22;9.40;;;6.90;;
6392;SDS011;3229;42.674;23.282;2024-03-22T07:07:48;11.73;;;7.15;;
6392;SDS011;3229;42.674;23.282;2024-03-22T07:10:16;10.75;;;6.60;;
6392;SDS011;3229;42.674;23.282;2024-03-22T07:12:41;12.52;;;6.63;;
6392;SDS011;3229;42.674;23.282;2024-03-22T07:15:10;8.80;;;6.97;;
6392;SDS011;3229;42.674;23.282;2024-03-22T07:17:35;9.07;;;7.45;;
6392;SDS011;3229;42.674;23.282;2024-03-22T07:20:02;11.98;;;7.47;;
6392;SDS011;3229;42.674;23.282;2024-03-22T07:22:29;11.43;;;6.68;;
6392;SDS011;3229;42.674;23.282;2024-03-22T07:24:56;11.07;;;7.65;;
6392;SDS011;3229;42.674;23.282;2024-03-22T07:27:21;10.98;;;6.75;;
6392;SDS011;3229;42.674;23.282;2024-03-22T07:29:48;14.55;;;6.63;;
6392;SDS011;3229;42.674;23.282;2024-03-22T07:32:15;7.85;;;6.03;;
6392;SDS011;3229;42.674;23.282;2024-03-22T07:34:45;11.60;;;7.03;;
6392;SDS011;3229;42.674;23.282;2024-03-22T07:37:11;10.73;;;6.75;;
6392;SDS011;3229;42.674;23.282;2024-03-22T07:39:38;15.07;;;7.03;;
6392;SDS011;3229;42.674;23.282;2024-03-22T07:42:04;9.38;;;6.43;;
6392;SDS011;3229;42.674;23.282;2024-03-22T07:44:31;9.40;;;6.50;;
6392;SDS011;3229;42.674;23.282;2024-03-22T07:46:56;8.70;;;6.75;;
6392;SDS011;3229;42.674;23.282;2024-03-22T07:49:24;13.05;;;7.40;;
6392;SDS011;3229;42.674;23.282;2024-03-22T07:51:50;9.85;;;6.65;;
6392;SDS011;3229;42.674;23.282;2024-03-22T07:54:18;10.55;;;7.22;;
6392;SDS011;3229;42.674;23.282;2024-03-22T07:56:44;9.73;;;6.80;;
6392;SDS011;3229;42.674;23.282;2024-03-22T07:59:10;12.85;;;6.78;;
6392;SDS011;3229;42.674;23.282;2024-03-22T08:01:36;8.38;;;6.32;;
6392;SDS011;3229;42.674;23.282;2024-03-22T08:04:03;5.93;;;5.00;;
6392;SDS011;3229;42.674;23.282;2024-03-22T08:06:31;10.48;;;5.82;;
6392;SDS011;3229;42.674;23.282;2024-03-22T08:08:57;8.43;;;5.65;;
6392;SDS011;3229;42.674;23.282;2024-03-22T08:11:23;6.65;;;5.43;;
6392;SDS011;3229;42.674;23.282;2024-03-22T08:13:50;6.03;;;5.20;;
6392;SDS011;3229;42.674;23.282;2024-03-22T08:16:16;11.88;;;5.22;;
6392;SDS011;3229;42.674;23.282;2024-03-22T08:18:42;5.13;;;4.32;;
6392;SDS011;3229;42.674;23.282;2024-03-22T08:21:08;5.20;;;4.72;;
6392;SDS011;3229;42.674;23.282;2024-03-22T08:23:36;5.32;;;4.80;;
6392;SDS011;3229;42.674;23.282;2024-03-22T08:26:02;5.10;;;4.57;;
6392;SDS011;3229;42.674;23.282;2024-03-22T08:28:29;7.07;;;4.40;;
6392;SDS011;3229;42.674;23.282;2024-03-22T08:30:55;9.63;;;4.65;;
6392;SDS011;3229;42.674;23.282;2024-03-22T08:33:21;5.38;;;4.07;;
6392;SDS011;3229;42.674;23.282;2024-03-22T08:35:47;6.32;;;4.82;;
6392;SDS011;3229;42.674;23.282;2024-03-22T08:38:14;4.50;;;4.07;;
6392;SDS011;3229;42.674;23.282;2024-03-22T08:40:41;4.72;;;4.13;;
6392;SDS011;3229;42.674;23.282;2024-03-22T08:43:08;5.07;;;4.15;;
6392;SDS011;3229;42.674;23.282;2024-03-22T08:45:34;5.25;;;4.10;;
6392;SDS011;3229;42.674;23.282;2024-03-22T08:48:01;4.30;;;3.90;;
6392;SDS011;3229;42.674;23.282;2024-03-22T08:50:27;5.47;;;3.60;;
6392;SDS011;3229;42.674;23.282;2024-03-22T08:52:54;3.88;;;3.58;;
6392;SDS011;3229;42.674;23.282;2024-03-22T08:55:19;5.00;;;4.07;;
6392;SDS011;3229;42.674;23.282;2024-03-22T08:57:47;4.50;;;4.00;;
6392;SDS011;3229;42.674;23.282;2024-03-22T09:00:14;5.00;;;3.40;;
6392;SDS011;3229;42.674;23.282;2024-03-22T09:02:40;4.05;;;3.65;;
6392;SDS011;3229;42.674;23.282;2024-03-22T09:05:06;4.25;;;3.85;;
6392;SDS011;3229;42.674;23.282;2024-03-22T09:07:34;4.07;;;3.60;;
6392;SDS011;3229;42.674;23.282;2024-03-22T09:10:00;4.05;;;3.10;;
6392;SDS011;3229;42.674;23.282;2024-03-22T09:12:26;4.40;;;3.08;;
6392;SDS011;3229;42.674;23.282;2024-03-22T09:14:54;4.00;;;3.60;;
6392;SDS011;3229;42.674;23.282;2024-03-22T09:17:21;3.75;;;3.38;;
6392;SDS011;3229;42.674;23.282;2024-03-22T09:19:46;6.57;;;3.35;;
6392;SDS011;3229;42.674;23.282;2024-03-22T09:22:14;3.72;;;3.17;;
6392;SDS011;3229;42.674;23.282;2024-03-22T09:24:40;3.92;;;3.33;;
6392;SDS011;3229;42.674;23.282;2024-03-22T09:27:07;3.15;;;2.88;;
6392;SDS011;3229;42.674;23.282;2024-03-22T09:29:35;3.30;;;3.00;;
6392;SDS011;3229;42.674;23.282;2024-03-22T09:32:03;7.68;;;3.63;;
6392;SDS011;3229;42.674;23.282;2024-03-22T09:34:29;5.47;;;3.15;;
6392;SDS011;3229;42.674;23.282;2024-03-22T09:36:56;5.75;;;3.83;;
6392;SDS011;3229;42.674;23.282;2024-03-22T09:39:22;3.67;;;3.10;;
6392;SDS011;3229;42.674;23.282;2024-03-22T09:41:50;3.83;;;2.63;;
6392;SDS011;3229;42.674;23.282;2024-03-22T09:44:17;3.97;;;3.28;;
6392;SDS011;3229;42.674;23.282;2024-03-22T09:46:46;3.35;;;2.50;;
6392;SDS011;3229;42.674;23.282;2024-03-22T09:49:14;3.38;;;3.08;;
6392;SDS011;3229;42.674;23.282;2024-03-22T09:51:41;3.38;;;3.03;;
6392;SDS011;3229;42.674;23.282;2024-03-22T09:54:08;3.40;;;2.78;;
6392;SDS011;3229;42.674;23.282;2024-03-22T09:56:35;3.10;;;2.80;;
6392;SDS011;3229;42.674;23.282;2024-03-22T09:59:04;3.30;;;3.00;;
6392;SDS011;3229;42.674;23.282;2024-03-22T10:01:32;3.83;;;2.92;;
6392;SDS011;3229;42.674;23.282;2024-03-22T10:03:59;4.60;;;3.40;;
6392;SDS011;3229;42.674;23.282;2024-03-22T10:06:27;3.67;;;3.28;;
6392;SDS011;3229;42.674;23.282;2024-03-22T10:08:54;3.38;;;3.08;;
6392;SDS011;3229;42.674;23.282;2024-03-22T10:11:25;3.85;;;2.92;;
6392;SDS011;3229;42.674;23.282;2024-03-22T10:13:51;3.38;;;3.08;;
6392;SDS011;3229;42.674;23.282;2024-03-22T10:16:20;3.72;;;2.92;;
6392;SDS011;3229;42.674;23.282;2024-03-22T10:18:45;3.08;;;2.75;;
6392;SDS011;3229;42.674;23.282;2024-03-22T10:21:16;3.17;;;2.90;;
6392;SDS011;3229;42.674;23.282;2024-03-22T10:23:44;3.25;;;2.90;;
6392;SDS011;3229;42.674;23.282;2024-03-22T10:26:13;4.10;;;2.78;;
6392;SDS011;3229;42.674;23.282;2024-03-22T10:28:43;6.13;;;3.33;;
6392;SDS011;3229;42.674;23.282;2024-03-22T10:31:11;3.17;;;2.95;;
6392;SDS011;3229;42.674;23.282;2024-03-22T10:33:37;3.22;;;2.92;;
6392;SDS011;3229;42.674;23.282;2024-03-22T10:36:06;3.28;;;2.97;;
6392;SDS011;3229;42.674;23.282;2024-03-22T10:38:32;5.57;;;3.03;;
6392;SDS011;3229;42.674;23.282;2024-03-22T10:41:04;3.30;;;3.00;;
6392;SDS011;3229;42.674;23.282;2024-03-22T10:43:30;4.47;;;2.95;;
6392;SDS011;3229;42.674;23.282;2024-03-22T10:45:59;3.75;;;3.10;;
6392;SDS011;3229;42.674;23.282;2024-03-22T10:48:26;3.08;;;2.78;;
6392;SDS011;3229;42.674;23.282;2024-03-22T10:50:58;4.10;;;3.25;;
6392;SDS011;3229;42.674;23.282;2024-03-22T10:53:25;2.80;;;2.60;;
6392;SDS011;3229;42.674;23.282;2024-03-22T10:55:53;3.33;;;3.05;;
6392;SDS011;3229;42.674;23.282;2024-03-22T10:58:26;4.28;;;2.78;;
6392;SDS011;3229;42.674;23.282;2024-03-22T11:00:53;3.70;;;3.10;;
6392;SDS011;3229;42.674;23.282;2024-03-22T11:03:21;2.78;;;2.58;;
6392;SDS011;3229;42.674;23.282;2024-03-22T11:05:49;3.40;;;2.78;;
6392;SDS011;3229;42.674;23.282;2024-03-22T11:08:23;4.95;;;2.88;;
6392;SDS011;3229;42.674;23.282;2024-03-22T11:10:50;3.65;;;3.22;;
6392;SDS011;3229;42.674;23.282;2024-03-22T11:13:16;3.22;;;2.65;;
6392;SDS011;3229;42.674;23.282;2024-03-22T11:15:45;4.20;;;3.15;;
6392;SDS011;3229;42.674;23.282;2024-03-22T11:18:12;2.78;;;2.58;;
6392;SDS011;3229;42.674;23.282;2024-03-22T11:20:40;3.80;;;2.75;;
6392;SDS011;3229;42.674;23.282;2024-03-22T11:23:07;3.33;;;3.03;;
6392;SDS011;3229;42.674;23.282;2024-03-22T11:25:35;2.95;;;2.75;;
6392;SDS011;3229;42.674;23.282;2024-03-22T11:28:01;3.22;;;2.90;;
6392;SDS011;3229;42.674;23.282;2024-03-22T11:30:28;3.20;;;2.90;;
6392;SDS011;3229;42.674;23.282;2024-03-22T11:32:56;3.35;;;3.05;;
6392;SDS011;3229;42.674;23.282;2024-03-22T11:35:23;4.57;;;2.75;;
6392;SDS011;3229;42.674;23.282;2024-03-22T11:37:49;3.00;;;2.70;;
6392;SDS011;3229;42.674;23.282;2024-03-22T11:40:17;3.17;;;2.97;;
6392;SDS011;3229;42.674;23.282;2024-03-22T11:42:43;3.10;;;2.85;;
6392;SDS011;3229;42.674;23.282;2024-03-22T11:45:13;3.15;;;2.85;;
6392;SDS011;3229;42.674;23.282;2024-03-22T11:47:40;3.17;;;2.88;;
6392;SDS011;3229;42.674;23.282;2024-03-22T11:50:09;5.68;;;3.30;;
6392;SDS011;3229;42.674;23.282;2024-03-22T11:52:39;3.75;;;2.97;;
6392;SDS011;3229;42.674;23.282;2024-03-22T11:55:06;5.32;;;2.80;;
6392;SDS011;3229;42.674;23.282;2024-03-22T11:57:32;3.83;;;2.92;;
6392;SDS011;3229;42.674;23.282;2024-03-22T11:59:59;5.80;;;2.97;;
6392;SDS011;3229;42.674;23.282;2024-03-22T12:02:26;2.90;;;2.63;;
6392;SDS011;3229;42.674;23.282;2024-03-22T12:04:53;4.13;;;2.90;;
6392;SDS011;3229;42.674;23.282;2024-03-22T12:07:20;2.97;;;2.72;;
6392;SDS011;3229;42.674;23.282;2024-03-22T12:09:47;3.25;;;2.95;;
6392;SDS011;3229;42.674;23.282;2024-03-22T12:12:13;2.70;;;2.50;;
6392;SDS011;3229;42.674;23.282;2024-03-22T12:14:40;3.70;;;2.80;;
6392;SDS011;3229;42.674;23.282;2024-03-22T12:17:06;3.10;;;2.80;;
6392;SDS011;3229;42.674;23.282;2024-03-22T12:19:33;2.92;;;2.72;;
6392;SDS011;3229;42.674;23.282;2024-03-22T12:21:59;5.85;;;3.08;;
6392;SDS011;3229;42.674;23.282;2024-03-22T12:24:28;5.78;;;2.55;;
6392;SDS011;3229;42.674;23.282;2024-03-22T12:26:54;3.13;;;2.83;;
6392;SDS011;3229;42.674;23.282;2024-03-22T12:29:20;3.25;;;2.95;;
6392;SDS011;3229;42.674;23.282;2024-03-22T12:31:46;5.13;;;3.00;;
6392;SDS011;3229;42.674;23.282;2024-03-22T12:34:14;2.90;;;2.70;;
6392;SDS011;3229;42.674;23.282;2024-03-22T12:36:40;3.03;;;2.72;;
6392;SDS011;3229;42.674;23.282;2024-03-22T12:39:07;3.05;;;2.75;;
6392;SDS011;3229;42.674;23.282;2024-03-22T12:41:35;3.05;;;2.75;;
6392;SDS011;3229;42.674;23.282;2024-03-22T12:44:02;3.10;;;2.50;;
6392;SDS011;3229;42.674;23.282;2024-03-22T12:46:28;3.03;;;2.72;;
6392;SDS011;3229;42.674;23.282;2024-03-22T12:48:55;5.65;;;3.22;;
6392;SDS011;3229;42.674;23.282;2024-03-22T12:51:21;3.80;;;2.83;;
6392;SDS011;3229;42.674;23.282;2024-03-22T12:53:49;3.70;;;2.75;;
6392;SDS011;3229;42.674;23.282;2024-03-22T12:56:14;3.40;;;2.75;;
6392;SDS011;3229;42.674;23.282;2024-03-22T12:58:43;3.80;;;3.30;;
6392;SDS011;3229;42.674;23.282;2024-03-22T13:01:09;3.00;;;2.70;;
6392;SDS011;3229;42.674;23.282;2024-03-22T13:03:36;4.25;;;2.80;;
6392;SDS011;3229;42.674;23.282;2024-03-22T13:06:02;3.17;;;2.88;;
6392;SDS011;3229;42.674;23.282;2024-03-22T13:08:30;3.22;;;2.90;;
6392;SDS011;3229;42.674;23.282;2024-03-22T13:10:56;6.20;;;3.58;;
6392;SDS011;3229;42.674;23.282;2024-03-22T13:13:22;3.15;;;2.85;;
6392;SDS011;3229;42.674;23.282;2024-03-22T13:15:50;3.92;;;2.85;;
6392;SDS011;3229;42.674;23.282;2024-03-22T13:18:16;3.28;;;2.90;;
6392;SDS011;3229;42.674;23.282;2024-03-22T13:20:42;3.42;;;2.80;;
6392;SDS011;3229;42.674;23.282;2024-03-22T13:23:09;4.47;;;2.78;;
6392;SDS011;3229;42.674;23.282;2024-03-22T13:25:36;3.37;;;2.80;;
6392;SDS011;3229;42.674;23.282;2024-03-22T13:28:03;2.72;;;2.53;;
6392;SDS011;3229;42.674;23.282;2024-03-22T13:30:30;2.80;;;2.60;;
6392;SDS011;3229;42.674;23.282;2024-03-22T13:32:58;3.50;;;2.80;;
6392;SDS011;3229;42.674;23.282;2024-03-22T13:35:24;5.03;;;3.33;;
6392;SDS011;3229;42.674;23.282;2024-03-22T13:37:51;3.67;;;2.78;;
6392;SDS011;3229;42.674;23.282;2024-03-22T13:40:16;4.17;;;2.73;;
6392;SDS011;3229;42.674;23.282;2024-03-22T13:42:43;3.00;;;2.70;;
6392;SDS011;3229;42.674;23.282;2024-03-22T13:45:09;2.57;;;2.37;;
6392;SDS011;3229;42.674;23.282;2024-03-22T13:47:36;3.40;;;2.93;;
6392;SDS011;3229;42.674;23.282;2024-03-22T13:50:04;4.00;;;3.10;;
6392;SDS011;3229;42.674;23.282;2024-03-22T13:52:33;3.25;;;2.83;;
6392;SDS011;3229;42.674;23.282;2024-03-22T13:54:59;4.35;;;3.10;;
6392;SDS011;3229;42.674;23.282;2024-03-22T13:57:26;3.10;;;2.80;;
6392;SDS011;3229;42.674;23.282;2024-03-22T13:59:52;3.15;;;2.85;;
6392;SDS011;3229;42.674;23.282;2024-03-22T14:02:19;4.57;;;3.05;;
6392;SDS011;3229;42.674;23.282;2024-03-22T14:04:45;2.72;;;2.53;;
6392;SDS011;3229;42.674;23.282;2024-03-22T14:07:13;3.40;;;3.10;;
6392;SDS011;3229;42.674;23.282;2024-03-22T14:09:39;3.15;;;2.85;;
6392;SDS011;3229;42.674;23.282;2024-03-22T14:12:08;3.45;;;3.15;;
6392;SDS011;3229;42.674;23.282;2024-03-22T14:14:34;6.57;;;3.13;;
6392;SDS011;3229;42.674;23.282;2024-03-22T14:17:01;3.60;;;2.83;;
6392;SDS011;3229;42.674;23.282;2024-03-22T14:19:27;5.32;;;3.20;;
6392;SDS011;3229;42.674;23.282;2024-03-22T14:21:53;4.37;;;2.57;;
6392;SDS011;3229;42.674;23.282;2024-03-22T14:24:20;3.80;;;3.40;;
6392;SDS011;3229;42.674;23.282;2024-03-22T14:26:47;9.57;;;3.30;;
6392;SDS011;3229;42.674;23.282;2024-03-22T14:29:13;5.30;;;3.45;;
6392;SDS011;3229;42.674;23.282;2024-03-22T14:31:40;2.97;;;2.60;;
6392;SDS011;3229;42.674;23.282;2024-03-22T14:34:07;5.13;;;2.80;;
6392;SDS011;3229;42.674;23.282;2024-03-22T14:36:34;7.23;;;3.40;;
6392;SDS011;3229;42.674;23.282;2024-03-22T14:39:00;6.60;;;3.60;;
6392;SDS011;3229;42.674;23.282;2024-03-22T14:41:31;5.57;;;3.77;;
6392;SDS011;3229;42.674;23.282;2024-03-22T14:43:57;3.70;;;2.87;;
6392;SDS011;3229;42.674;23.282;2024-03-22T14:46:24;7.43;;;3.50;;
6392;SDS011;3229;42.674;23.282;2024-03-22T14:48:53;4.40;;;3.00;;
6392;SDS011;3229;42.674;23.282;2024-03-22T14:51:20;3.57;;;3.23;;
6392;SDS011;3229;42.674;23.282;2024-03-22T14:53:46;7.50;;;3.20;;